Ocean Majesty — CQSC — position and weather

sailwx.info

Track history (hours):
 
Tides and Currents Weather Stations Pressure Air Temp Water Temp Dewpoint Dewpoint Depression Visibility Wind Speed Wind Dir Waves Ship Positions

Ocean Majesty

Last reported at 2014-Sep-14 03:12 UTC. Time now 2014-Sep-15 04:07 UTC.
Position N 41°02' E 028°59'.

Length 136 m; draft 6.3 m.

Type: Passenger vessel. MMSI: 255717000.

Date/timePositionNaut miles runAvg speedWind from/ knotsBaromVisibWave heightAir tempDewpointWater temp
2014-Sep-14 03:12N 41°02' E 028°59'2 3.2
2014-Sep-14 02:34N 40°60' E 028°60'8 8.3
2014-Sep-14 01:33N 40°53' E 028°54'176 6.6
2014-Sep-12 23:04N 39°11' E 025°47'1615.6
2014-Sep-12 22:03N 38°57' E 025°58'53 3.6
2014-Sep-12 07:23N 38°05' E 025°49'1416.7
2014-Sep-12 06:33N 38°04' E 025°32'1916.7
2014-Sep-12 05:26N 38°02' E 025°08'2317.3
2014-Sep-12 04:08N 37°58' E 024°40'1017.3
2014-Sep-12 03:32N 37°52' E 024°30'2316.8
2014-Sep-12 02:11N 37°37' E 024°08'2415.0
2014-Sep-12 00:33N 37°45' E 023°39'1515.2
2014-Sep-11 23:33N 37°51' E 023°22'36813.6
2014-Sep-10 20:33N 38°09' E 015°35'1413.5
2014-Sep-10 19:29N 38°24' E 015°34'11616.7
2014-Sep-10 12:32N 39°47' E 013°51'24016.9
2014-Sep-09 22:19N 42°39' E 010°09'1716.7
2014-Sep-09 21:18N 42°50' E 009°51'1415.8
2014-Sep-09 20:24N 42°60' E 009°36'1416.2
2014-Sep-09 19:33N 43°07' E 009°20'5416.6
2014-Sep-09 16:18N 43°26' E 008°11'3016.7
2014-Sep-09 14:29N 43°36' E 007°31'1211.6
2014-Sep-09 13:29N 43°42' E 007°17'0 0.0
2014-Sep-09 12:23N 43°42' E 007°17'0 0.0
2014-Sep-09 11:23N 43°42' E 007°17'0 0.0
2014-Sep-09 10:29N 43°42' E 007°17'0 0.0
2014-Sep-09 09:29N 43°42' E 007°17'0 0.0
2014-Sep-09 08:17N 43°42' E 007°17'0 0.0
2014-Sep-09 07:23N 43°42' E 007°17'1 1.0
2014-Sep-09 06:33N 43°41' E 007°17'1212.0
2014-Sep-09 05:34N 43°30' E 007°11'1515.1
2014-Sep-09 04:34N 43°18' E 006°57'1515.1
2014-Sep-09 03:33N 43°07' E 006°43'1514.7
2014-Sep-09 02:33N 42°56' E 006°30'1514.6
2014-Sep-09 01:33N 42°50' E 006°12'1514.6
2014-Sep-09 00:33N 42°43' E 005°54'4615.3
2014-Sep-08 21:32N 42°22' E 004°58'1717.0
2014-Sep-08 20:32N 42°15' E 004°38'2016.9
2014-Sep-08 19:21N 42°06' E 004°14'1315.8
2014-Sep-08 18:33N 41°60' E 003°59'1716.1
2014-Sep-08 17:29N 41°52' E 003°38'1516.0
2014-Sep-08 16:33N 41°45' E 003°21'1616.5
2014-Sep-08 15:33N 41°37' E 003°01'1917.2
2014-Sep-08 14:27N 41°29' E 002°38'1616.6
2014-Sep-08 13:29N 41°22' E 002°19'12 1.5
2014-Sep-08 05:21N 41°12' E 002°09'1316.9
2014-Sep-08 04:33N 41°00' E 002°01'1717.0
2014-Sep-08 03:34N 40°45' E 001°51'1716.6
2014-Sep-08 02:33N 40°30' E 001°41'1616.2
2014-Sep-08 01:33N 40°16' E 001°31'1616.1
2014-Sep-08 00:33N 40°02' E 001°21'1616.1
2014-Sep-07 23:33N 39°47' E 001°12'11615.9
2014-Sep-07 16:13N 38°19' W 000°25'3 0.5
2014-Sep-07 10:21N 38°19' W 000°29'911.2
2014-Sep-07 09:34N 38°11' W 000°24'1716.4
2014-Sep-07 08:33N 37°54' W 000°25'1616.1
2014-Sep-07 07:34N 37°39' W 000°29'1615.4
2014-Sep-07 06:31N 37°26' W 000°42'1815.9
2014-Sep-07 05:21N 37°14' W 000°59'10114.8
2014-Sep-06 22:32N 36°26' W 002°49'122 5.5
2014-Sep-06 00:26N 36°00' W 005°18'114 5.2
2014-Sep-05 02:33N 36°33' W 007°34'1916.4
2014-Sep-05 01:24N 36°32' W 007°57'1616.4
2014-Sep-05 00:27N 36°32' W 008°16'1516.3
2014-Sep-04 23:32N 36°32' W 008°35'1716.2
2014-Sep-04 22:30N 36°30' W 008°56'1616.6
2014-Sep-04 21:33N 36°33' W 009°15'2216.8
2014-Sep-04 20:14N 36°50' W 009°33'8516.9
2014-Sep-04 15:12N 38°14' W 009°27'1216.7
2014-Sep-04 14:30N 38°26' W 009°24'1516.5
2014-Sep-04 13:33N 38°41' W 009°18'9 8.4
2014-Sep-04 12:32N 38°43' W 009°07'0 0.0
2014-Sep-04 11:32N 38°43' W 009°07'0 0.0
2014-Sep-04 10:32N 38°43' W 009°07'0 0.0
2014-Sep-04 09:32N 38°43' W 009°07'0 0.0
2014-Sep-04 08:32N 38°43' W 009°07'0 0.0
2014-Sep-04 07:32N 38°43' W 009°07'0 0.2
2014-Sep-04 06:33N 38°43' W 009°07'8 8.2
2014-Sep-04 05:33N 38°41' W 009°17'  
Track history (hours):
 
Tides and Currents Weather Stations Pressure Air Temp Water Temp Dewpoint Dewpoint Depression Visibility Wind Speed Wind Dir Waves Ship Positions

Ocean Majesty

Last reported at 2014-Sep-14 03:12 UTC. Time now 2014-Sep-15 04:07 UTC.
Position N 41°02' E 028°59'.

Length 136 m; draft 6.3 m.

Type: Passenger vessel. MMSI: 255717000.

Date/timePositionNaut miles runAvg speedWind from/ knotsBaromVisibWave heightAir tempDewpointWater temp
2014-Sep-14 03:12N 41°02' E 028°59'2 3.2
2014-Sep-14 02:34N 40°60' E 028°60'8 8.3
2014-Sep-14 01:33N 40°53' E 028°54'176 6.6
2014-Sep-12 23:04N 39°11' E 025°47'1615.6
2014-Sep-12 22:03N 38°57' E 025°58'53 3.6
2014-Sep-12 07:23N 38°05' E 025°49'1416.7
2014-Sep-12 06:33N 38°04' E 025°32'1916.7
2014-Sep-12 05:26N 38°02' E 025°08'2317.3
2014-Sep-12 04:08N 37°58' E 024°40'1017.3
2014-Sep-12 03:32N 37°52' E 024°30'2316.8
2014-Sep-12 02:11N 37°37' E 024°08'2415.0
2014-Sep-12 00:33N 37°45' E 023°39'1515.2
2014-Sep-11 23:33N 37°51' E 023°22'36813.6
2014-Sep-10 20:33N 38°09' E 015°35'1413.5
2014-Sep-10 19:29N 38°24' E 015°34'11616.7
2014-Sep-10 12:32N 39°47' E 013°51'24016.9
2014-Sep-09 22:19N 42°39' E 010°09'1716.7
2014-Sep-09 21:18N 42°50' E 009°51'1415.8
2014-Sep-09 20:24N 42°60' E 009°36'1416.2
2014-Sep-09 19:33N 43°07' E 009°20'5416.6
2014-Sep-09 16:18N 43°26' E 008°11'3016.7
2014-Sep-09 14:29N 43°36' E 007°31'1211.6
2014-Sep-09 13:29N 43°42' E 007°17'0 0.0
2014-Sep-09 12:23N 43°42' E 007°17'0 0.0
2014-Sep-09 11:23N 43°42' E 007°17'0 0.0
2014-Sep-09 10:29N 43°42' E 007°17'0 0.0
2014-Sep-09 09:29N 43°42' E 007°17'0 0.0
2014-Sep-09 08:17N 43°42' E 007°17'0 0.0
2014-Sep-09 07:23N 43°42' E 007°17'1 1.0
2014-Sep-09 06:33N 43°41' E 007°17'1212.0
2014-Sep-09 05:34N 43°30' E 007°11'1515.1
2014-Sep-09 04:34N 43°18' E 006°57'1515.1
2014-Sep-09 03:33N 43°07' E 006°43'1514.7
2014-Sep-09 02:33N 42°56' E 006°30'1514.6
2014-Sep-09 01:33N 42°50' E 006°12'1514.6
2014-Sep-09 00:33N 42°43' E 005°54'4615.3
2014-Sep-08 21:32N 42°22' E 004°58'1717.0
2014-Sep-08 20:32N 42°15' E 004°38'2016.9
2014-Sep-08 19:21N 42°06' E 004°14'1315.8
2014-Sep-08 18:33N 41°60' E 003°59'1716.1
2014-Sep-08 17:29N 41°52' E 003°38'1516.0
2014-Sep-08 16:33N 41°45' E 003°21'1616.5
2014-Sep-08 15:33N 41°37' E 003°01'1917.2
2014-Sep-08 14:27N 41°29' E 002°38'1616.6
2014-Sep-08 13:29N 41°22' E 002°19'12 1.5
2014-Sep-08 05:21N 41°12' E 002°09'1316.9
2014-Sep-08 04:33N 41°00' E 002°01'1717.0
2014-Sep-08 03:34N 40°45' E 001°51'1716.6
2014-Sep-08 02:33N 40°30' E 001°41'1616.2
2014-Sep-08 01:33N 40°16' E 001°31'1616.1
2014-Sep-08 00:33N 40°02' E 001°21'1616.1
2014-Sep-07 23:33N 39°47' E 001°12'11615.9
2014-Sep-07 16:13N 38°19' W 000°25'3 0.5
2014-Sep-07 10:21N 38°19' W 000°29'911.2
2014-Sep-07 09:34N 38°11' W 000°24'1716.4
2014-Sep-07 08:33N 37°54' W 000°25'1616.1
2014-Sep-07 07:34N 37°39' W 000°29'1615.4
2014-Sep-07 06:31N 37°26' W 000°42'1815.9
2014-Sep-07 05:21N 37°14' W 000°59'10114.8
2014-Sep-06 22:32N 36°26' W 002°49'122 5.5
2014-Sep-06 00:26N 36°00' W 005°18'114 5.2
2014-Sep-05 02:33N 36°33' W 007°34'1916.4
2014-Sep-05 01:24N 36°32' W 007°57'1616.4
2014-Sep-05 00:27N 36°32' W 008°16'1516.3
2014-Sep-04 23:32N 36°32' W 008°35'1716.2
2014-Sep-04 22:30N 36°30' W 008°56'1616.6
2014-Sep-04 21:33N 36°33' W 009°15'2216.8
2014-Sep-04 20:14N 36°50' W 009°33'8516.9
2014-Sep-04 15:12N 38°14' W 009°27'1216.7
2014-Sep-04 14:30N 38°26' W 009°24'1516.5
2014-Sep-04 13:33N 38°41' W 009°18'9 8.4
2014-Sep-04 12:32N 38°43' W 009°07'0 0.0
2014-Sep-04 11:32N 38°43' W 009°07'0 0.0
2014-Sep-04 10:32N 38°43' W 009°07'0 0.0
2014-Sep-04 09:32N 38°43' W 009°07'0 0.0
2014-Sep-04 08:32N 38°43' W 009°07'0 0.0
2014-Sep-04 07:32N 38°43' W 009°07'0 0.2
2014-Sep-04 06:33N 38°43' W 009°07'8 8.2
2014-Sep-04 05:33N 38°41' W 009°17'  

Dump ship's entire track history